< < Back
Terminal Aerodrome Forecast


Current Version              Previous Versions:   1  2  3  4  5  6  7  8  9  

Terminal Aerodrome Forecast

330
FTUS42 KTAE 301639 AAB
TAFABY
TAF AMD
KABY 301639Z 3017/3112 08010G15KT P6SM SCT050
     FM310000 07008KT P6SM FEW250=

Latest METAR

351
SAUS70 KWBC 311400 RRL
MTRABY
METAR KABY 311353Z 07008KT 10SM CLR 28/21 A2995 RMK AO2 SLP140
T02830211


USA.gov is the U.S. government's official web portal to all federal, state and local government web resources and services.